createdAt,value
2022-12-04T00:04:18.659Z,79.49
2022-12-04T00:10:41.594Z,79.05
2022-12-04T00:17:01.610Z,79.05
2022-12-04T00:23:24.586Z,78.75
2022-12-04T00:29:44.573Z,78.54
2022-12-04T00:36:07.643Z,78.83
2022-12-04T00:42:27.575Z,78.46
2022-12-04T00:48:50.601Z,78.6
2022-12-04T00:55:10.629Z,78.34
2022-12-04T01:01:33.614Z,78.88
2022-12-04T01:07:53.691Z,78.49
2022-12-04T01:14:16.686Z,77.12
2022-12-04T01:20:36.565Z,76.9
2022-12-04T01:26:59.627Z,76.61
2022-12-04T01:33:19.735Z,76.5
2022-12-04T01:39:42.589Z,76.74
2022-12-04T01:46:02.644Z,76.79
2022-12-04T01:52:25.629Z,76.98
2022-12-04T01:58:45.595Z,76.99
2022-12-04T02:05:08.548Z,76.72
2022-12-04T02:11:28.694Z,76.73
2022-12-04T02:17:51.558Z,76.45
2022-12-04T02:24:11.696Z,77.25
2022-12-04T02:30:34.670Z,76.78
2022-12-04T02:36:54.582Z,76.66
2022-12-04T02:43:17.680Z,76.64
2022-12-04T02:49:37.598Z,76.53
2022-12-04T02:56:00.559Z,76.51
2022-12-04T03:02:20.705Z,76.41
2022-12-04T03:08:43.610Z,76.39
2022-12-04T03:15:03.572Z,76.84
2022-12-04T03:21:26.547Z,76.81
2022-12-04T03:27:46.691Z,76.97
2022-12-04T03:34:09.543Z,76.48
2022-12-04T03:40:29.655Z,76.41
2022-12-04T03:46:52.581Z,76.76
2022-12-04T03:53:12.725Z,77.1
2022-12-04T03:59:35.602Z,76.99
2022-12-04T04:05:55.636Z,77.19
2022-12-04T04:12:18.561Z,77.28
2022-12-04T04:34:48.098Z,77.46
2022-12-04T04:41:07.590Z,76.85
2022-12-04T04:47:30.650Z,77.18
2022-12-04T04:53:50.612Z,76.93
2022-12-04T05:00:13.571Z,77.1
2022-12-04T05:06:33.654Z,76.66
2022-12-04T05:12:56.669Z,77.04
2022-12-04T05:19:16.650Z,77.05
2022-12-04T05:25:39.600Z,76.97
2022-12-04T05:31:59.651Z,77.11
2022-12-04T05:38:22.556Z,76.99
2022-12-04T05:44:42.588Z,77.29
2022-12-04T05:51:05.581Z,77.45
2022-12-04T05:57:25.858Z,77.26
2022-12-04T06:03:48.654Z,77.99
2022-12-04T06:10:08.649Z,78.13
2022-12-04T06:16:31.652Z,78.09
2022-12-04T06:22:51.636Z,78.26
2022-12-04T06:29:14.638Z,78.31
2022-12-04T06:35:34.577Z,78.62
2022-12-04T06:41:57.634Z,78.7
2022-12-04T06:48:17.618Z,79.35
2022-12-04T06:54:40.606Z,78.84
2022-12-04T07:01:00.606Z,79.05
2022-12-04T07:07:23.681Z,78.99
2022-12-04T07:13:43.552Z,79.32
2022-12-04T07:20:06.653Z,79.19
2022-12-04T07:26:26.604Z,79.22
2022-12-04T07:32:49.557Z,79.48
2022-12-04T07:39:09.705Z,79.07
2022-12-04T07:45:32.681Z,78.91
2022-12-04T07:51:52.554Z,78.66
2022-12-04T07:58:15.583Z,78.9
2022-12-04T08:04:35.606Z,78.6
2022-12-04T08:10:58.713Z,78.56
2022-12-04T08:17:18.752Z,78.38
2022-12-04T08:23:41.587Z,78.79
2022-12-04T08:30:01.678Z,78.84
2022-12-04T08:36:24.588Z,78.78
2022-12-04T08:42:44.614Z,78.79
2022-12-04T08:49:07.618Z,78.97
2022-12-04T08:55:27.630Z,78.51
2022-12-04T09:01:50.667Z,78.47
2022-12-04T09:08:10.685Z,78.89
2022-12-04T09:14:33.580Z,78.73
2022-12-04T09:20:53.668Z,78.78
2022-12-04T09:37:21.519Z,78.87
2022-12-04T09:43:41.567Z,78.9
2022-12-04T09:50:04.577Z,78.79
2022-12-04T09:56:24.617Z,78.27
2022-12-04T10:02:47.720Z,78.34
2022-12-04T10:09:07.601Z,77.36
2022-12-04T10:15:30.586Z,77.46
2022-12-04T10:21:50.612Z,78.14
2022-12-04T10:28:13.596Z,77.69
2022-12-04T10:34:33.591Z,77.5
2022-12-04T10:40:56.672Z,78.19
2022-12-04T10:47:16.643Z,77.8
2022-12-04T10:53:39.594Z,77.95
2022-12-04T10:59:59.850Z,77.89
2022-12-04T11:06:22.677Z,77.98
2022-12-04T11:12:42.604Z,77.93
2022-12-04T11:19:05.672Z,78.17
2022-12-04T11:25:26.618Z,77.7
2022-12-04T11:31:49.822Z,78.03
2022-12-04T11:38:09.561Z,78.22
2022-12-04T11:44:32.729Z,78.01
2022-12-04T11:50:52.699Z,78.36
2022-12-04T11:57:15.594Z,78.12
2022-12-04T12:03:37.795Z,78.32
2022-12-04T12:10:04.587Z,78.84
2022-12-04T12:16:24.665Z,78.36
2022-12-04T12:22:47.628Z,78.18
2022-12-04T12:29:07.697Z,77.54
2022-12-04T12:35:30.626Z,77.59
2022-12-04T12:41:50.653Z,77.66
2022-12-04T12:48:13.581Z,77.92
2022-12-04T12:54:33.703Z,77.9
2022-12-04T13:00:56.651Z,78.55
2022-12-04T13:07:16.783Z,78.77
2022-12-04T13:13:39.584Z,78.72
2022-12-04T13:19:59.698Z,78.21
2022-12-04T13:26:22.666Z,78.54
2022-12-04T13:32:42.564Z,79.19
2022-12-04T13:39:05.567Z,79.58
2022-12-04T13:45:25.738Z,79.35
2022-12-04T13:51:48.562Z,79.47
2022-12-04T13:58:08.638Z,79.3
2022-12-04T14:04:31.610Z,79.74
2022-12-04T14:10:51.658Z,79.73
2022-12-04T14:17:14.682Z,79.46
2022-12-04T14:23:34.581Z,79.66
2022-12-04T14:29:57.672Z,79.51
2022-12-04T14:47:43.808Z,80.07
2022-12-04T14:54:06.558Z,80.11
2022-12-04T15:00:26.624Z,79.78
2022-12-04T15:06:49.602Z,80.19
2022-12-04T15:13:09.605Z,80.37
2022-12-04T15:19:32.647Z,80.13
2022-12-04T15:25:52.648Z,80.31
2022-12-04T15:32:15.579Z,80.32
2022-12-04T15:38:35.555Z,80.48
2022-12-04T15:44:58.792Z,80.43
2022-12-04T15:51:18.742Z,80.41
2022-12-04T15:57:41.640Z,80.46
2022-12-04T16:04:01.615Z,80.19
2022-12-04T16:10:24.735Z,80.18
2022-12-04T16:16:44.574Z,80.2
2022-12-04T16:23:07.695Z,80.83
2022-12-04T16:29:27.606Z,81.21
2022-12-04T16:35:50.563Z,80.54
2022-12-04T16:42:10.667Z,80.4
2022-12-04T16:48:33.665Z,80.16
2022-12-04T16:54:53.676Z,80.47
2022-12-04T17:01:16.710Z,79.6
2022-12-04T17:07:36.717Z,80.49
2022-12-04T17:13:59.700Z,80.81
2022-12-04T17:20:19.586Z,81.08
2022-12-04T17:26:42.623Z,80.6
2022-12-04T17:33:02.550Z,80.79
2022-12-04T17:39:25.599Z,80.85
2022-12-04T17:45:45.603Z,80.72
2022-12-04T17:52:08.641Z,81.1
2022-12-04T17:58:28.641Z,81.14
2022-12-04T18:04:51.546Z,81.13
2022-12-04T18:11:11.893Z,80.57
2022-12-04T18:17:35.694Z,81.06
2022-12-04T18:23:55.618Z,81.15
2022-12-04T18:30:18.623Z,81.17
2022-12-04T18:36:38.670Z,80.78
2022-12-04T18:43:01.616Z,80.64
2022-12-04T18:49:21.575Z,80.47
2022-12-04T18:55:44.750Z,79.73
2022-12-04T19:02:04.644Z,79.85
2022-12-04T19:08:32.837Z,80.23
2022-12-04T19:14:47.728Z,81.19
2022-12-04T19:21:10.611Z,81.32
2022-12-04T19:27:30.552Z,81.21
2022-12-04T19:50:36.581Z,80.57
2022-12-04T19:56:59.588Z,81.21
2022-12-04T20:03:19.685Z,81.44
2022-12-04T20:09:46.122Z,81.63
2022-12-04T20:16:02.556Z,82.17
2022-12-04T20:22:25.650Z,82.92
2022-12-04T20:28:45.681Z,83.45
2022-12-04T20:35:08.573Z,84.25
2022-12-04T20:41:28.606Z,84.75
2022-12-04T20:47:51.613Z,85.38
2022-12-04T20:54:11.593Z,86.08
2022-12-04T21:00:34.575Z,86.46
2022-12-04T21:06:54.607Z,87.06
2022-12-04T21:13:17.685Z,87.44
2022-12-04T21:19:37.569Z,87.97
2022-12-04T21:26:00.644Z,88.06
2022-12-04T21:32:20.585Z,88.21
2022-12-04T21:38:43.591Z,88.44
2022-12-04T21:45:03.578Z,88.86
2022-12-04T21:51:48.555Z,88.73
2022-12-04T21:57:46.592Z,88.35
2022-12-04T22:04:09.576Z,88
2022-12-04T22:10:29.609Z,87.97
2022-12-04T22:16:52.754Z,87.97
2022-12-04T22:23:12.660Z,88.19
2022-12-04T22:29:51.431Z,88.38
2022-12-04T22:35:55.618Z,88.41
2022-12-04T22:42:18.656Z,88.18
2022-12-04T22:48:38.622Z,87.66
2022-12-04T22:55:01.612Z,87.66
2022-12-04T23:20:32.604Z,89.02
2022-12-04T23:26:52.595Z,89.08
2022-12-04T23:33:15.627Z,89.16
2022-12-04T23:39:35.629Z,89.46
2022-12-04T23:45:58.672Z,89.68
2022-12-04T23:52:18.554Z,89.75
2022-12-04T23:58:41.605Z,89.43
